Time;durP1;ratioP1;P1;durP2;ratioP2;P2;SDS_P1;SDS_P2;PMS_P1;PMS_P2;Temp;Humidity;BMP_temperature;BMP_pressure;BME280_temperature;BME280_humidity;BME280_pressure;Samples;Min_cycle;Max_cycle;Signal;HPM_P1;HPM_P2
2022/04/18 00:00:21;;;;;;;15.35;5.68;;;;;;;8.46;77.88;101691.75;4955431;28;20050;-81
2022/04/18 00:02:48;;;;;;;18.25;5.93;;;;;;;8.46;76.11;101686.28;4977461;28;20470;-81
2022/04/18 00:05:14;;;;;;;9.80;4.43;;;;;;;8.55;75.75;101693.06;4964129;28;20050;-81
2022/04/18 00:07:39;;;;;;;9.63;3.28;;;;;;;8.54;73.21;101694.03;4946606;28;20062;-81
2022/04/18 00:10:05;;;;;;;8.43;3.17;;;;;;;8.46;76.13;101678.09;4961018;28;20372;-81
2022/04/18 00:12:31;;;;;;;5.55;3.20;;;;;;;8.52;74.26;101682.31;4971908;28;20043;-81
2022/04/18 00:14:57;;;;;;;11.55;3.40;;;;;;;8.46;74.82;101688.13;4964865;28;20102;-81
2022/04/18 00:17:23;;;;;;;6.80;3.22;;;;;;;8.36;75.82;101685.03;4943036;28;20046;-81
2022/04/18 00:19:48;;;;;;;7.85;3.45;;;;;;;8.18;76.01;101681.47;4966961;28;20403;-81
2022/04/18 00:22:15;;;;;;;8.52;3.53;;;;;;;8.35;76.08;101680.53;4949769;28;20110;-81
2022/04/18 00:24:41;;;;;;;6.88;2.75;;;;;;;8.31;76.28;101681.66;4962549;28;20035;-81
2022/04/18 00:27:06;;;;;;;5.57;2.95;;;;;;;8.42;73.88;101692.84;4961712;28;20039;-81
2022/04/18 00:29:32;;;;;;;5.78;2.63;;;;;;;8.35;74.22;101687.84;4943254;29;20476;-79
2022/04/18 00:31:57;;;;;;;3.83;2.63;;;;;;;8.34;72.61;101676.03;4951574;28;20442;-80
2022/04/18 00:34:23;;;;;;;5.57;2.88;;;;;;;8.43;72.70;101672.81;4958092;28;20062;-81
2022/04/18 00:36:48;;;;;;;8.32;3.05;;;;;;;8.43;72.33;101678.28;4940672;28;20038;-81
2022/04/18 00:39:14;;;;;;;10.95;4.72;;;;;;;8.43;73.43;101675.53;4941419;28;20050;-80
2022/04/18 00:41:39;;;;;;;12.95;7.30;;;;;;;8.49;71.96;101679.75;4962090;28;20039;-82
2022/04/18 00:44:05;;;;;;;16.33;8.02;;;;;;;8.37;73.30;101666.78;4971418;28;20069;-82
2022/04/18 00:46:30;;;;;;;19.88;7.05;;;;;;;8.35;72.62;101683.25;4958928;28;20050;-80
2022/04/18 00:48:56;;;;;;;12.02;6.10;;;;;;;8.31;73.40;101678.91;4968550;28;20031;-81
2022/04/18 00:51:25;;;;;;;9.38;4.78;;;;;;;8.26;73.99;101673.75;4938356;28;20035;-80
2022/04/18 00:53:56;;;;;;;8.32;4.60;;;;;;;8.15;74.56;101676.19;4961059;29;20038;-81
2022/04/18 00:56:23;;;;;;;10.40;3.13;;;;;;;8.14;74.52;101671.69;4957850;28;20047;-81
2022/04/18 00:58:53;;;;;;;5.13;2.70;;;;;;;8.03;76.04;101665.97;4962231;28;20047;-80
2022/04/18 01:01:19;;;;;;;4.68;2.97;;;;;;;7.87;78.43;101663.19;4940380;28;20035;-81
2022/04/18 01:03:45;;;;;;;8.20;2.65;;;;;;;7.78;78.44;101664.56;4972034;28;20051;-80
2022/04/18 01:06:14;;;;;;;18.05;3.05;;;;;;;7.71;78.45;101663.16;4966485;28;20390;-80
2022/04/18 01:08:42;;;;;;;6.82;3.33;;;;;;;7.63;78.10;101662.69;4968538;28;20094;-80
2022/04/18 01:11:09;;;;;;;5.07;3.08;;;;;;;7.57;80.22;101655.72;4953761;29;20043;-81
2022/04/18 01:13:43;;;;;;;6.55;3.30;;;;;;;7.48;81.81;101653.50;4950537;28;20406;-81
2022/04/18 01:16:09;;;;;;;8.85;3.15;;;;;;;7.58;80.62;101659.34;4964979;28;20046;-81
2022/04/18 01:18:35;;;;;;;8.35;3.95;;;;;;;7.65;76.68;101667.06;4972156;28;20046;-81
2022/04/18 01:21:03;;;;;;;13.40;4.28;;;;;;;7.70;77.83;101645.03;4952202;29;20046;-81
2022/04/18 01:23:29;;;;;;;7.63;3.78;;;;;;;7.67;77.38;101661.53;4970775;28;20042;-82
2022/04/18 01:31:22;;;;;;;5.55;3.65;;;;;;;7.74;75.49;101654.81;4971175;28;20490;-80
2022/04/18 01:33:47;;;;;;;4.45;3.08;;;;;;;7.66;76.14;101646.19;4951368;28;20078;-80
2022/04/18 01:36:13;;;;;;;11.95;3.88;;;;;;;7.52;77.82;101658.69;4956711;28;20035;-81
2022/04/18 01:38:38;;;;;;;4.00;3.00;;;;;;;7.52;76.66;101645.06;4954088;28;20102;-81
2022/04/18 01:41:04;;;;;;;9.52;2.90;;;;;;;7.47;77.29;101647.16;4959505;28;20117;-81
2022/04/18 01:43:29;;;;;;;6.50;3.05;;;;;;;7.53;77.65;101655.00;4977566;28;20493;-83
2022/04/18 01:45:55;;;;;;;4.75;2.90;;;;;;;7.41;78.84;101652.94;4947142;29;20469;-82
2022/04/18 01:48:21;;;;;;;7.40;2.58;;;;;;;7.33;79.27;101647.03;4950281;29;20616;-82
2022/04/18 01:50:48;;;;;;;5.05;2.45;;;;;;;7.31;77.41;101640.75;4950024;29;20036;-83
2022/04/18 01:53:13;;;;;;;6.07;3.13;;;;;;;7.24;78.13;101633.88;4939739;29;20043;-83
2022/04/18 01:55:39;;;;;;;4.78;2.75;;;;;;;7.23;78.17;101641.19;4962971;28;20050;-80
2022/04/18 01:58:05;;;;;;;5.25;2.85;;;;;;;7.18;79.63;101635.97;4951753;28;20075;-80
2022/04/18 02:00:32;;;;;;;8.68;2.45;;;;;;;7.11;81.72;101639.94;4940521;28;20042;-81
2022/04/18 02:02:58;;;;;;;6.43;2.45;;;;;;;7.08;79.19;101631.94;4975399;28;20481;-81
2022/04/18 02:05:25;;;;;;;6.40;3.20;;;;;;;7.09;80.90;101633.72;4960703;28;20022;-81
2022/04/18 02:07:52;;;;;;;5.63;3.10;;;;;;;7.03;80.47;101630.44;4968790;28;20031;-82
2022/04/18 02:10:20;;;;;;;8.25;2.90;;;;;;;6.92;81.05;101629.16;4947463;29;20522;-80
2022/04/18 02:12:45;;;;;;;7.00;2.75;;;;;;;6.92;81.22;101637.31;4966741;28;20023;-81
2022/04/18 02:15:11;;;;;;;7.43;3.33;;;;;;;6.78;81.67;101623.53;4948909;28;20073;-81
2022/04/18 02:17:36;;;;;;;8.27;3.10;;;;;;;6.71;85.33;101632.97;4953235;29;20054;-80
2022/04/18 02:20:03;;;;;;;6.63;3.10;;;;;;;6.62;85.31;101617.97;4950646;28;20051;-81
2022/04/18 02:22:30;;;;;;;7.00;3.22;;;;;;;6.39;84.82;101586.47;4965511;28;20035;-81
2022/04/18 02:24:59;;;;;;;5.53;3.35;;;;;;;6.63;83.82;101608.84;4963008;28;20035;-82
2022/04/18 02:27:25;;;;;;;10.13;3.08;;;;;;;6.77;82.20;101616.31;4967321;28;20037;-81
2022/04/18 02:29:51;;;;;;;9.68;3.08;;;;;;;6.76;82.34;101622.72;4966501;28;20671;-81
2022/04/18 02:35:01;;;;;;;7.70;3.55;;;;;;;6.68;84.28;101623.09;4975546;28;20067;-80
2022/04/18 02:37:27;;;;;;;5.22;3.20;;;;;;;6.61;82.77;101616.22;4969108;28;20074;-81
2022/04/18 02:39:54;;;;;;;10.43;3.10;;;;;;;6.59;82.83;101629.91;4932402;28;20035;-81
2022/04/18 02:42:20;;;;;;;8.35;3.22;;;;;;;6.59;83.90;101624.47;4969260;28;20510;-82
2022/04/18 02:44:48;;;;;;;8.70;2.88;;;;;;;6.48;83.77;101613.22;4980318;28;20483;-80
2022/04/18 02:47:13;;;;;;;4.25;2.83;;;;;;;6.49;83.45;101624.97;4962726;28;20431;-81
2022/04/18 02:49:39;;;;;;;8.02;3.08;;;;;;;6.44;83.98;101619.75;4945638;28;20027;-82
2022/04/18 02:52:06;;;;;;;4.97;3.38;;;;;;;6.54;81.50;101615.66;4978359;28;20093;-82
2022/04/18 02:54:31;;;;;;;9.30;2.97;;;;;;;6.41;82.88;101622.63;4979513;28;20035;-81
2022/04/18 02:56:57;;;;;;;5.78;3.30;;;;;;;6.26;85.16;101618.84;4961817;28;20042;-81
2022/04/18 02:59:22;;;;;;;8.00;3.60;;;;;;;6.13;86.59;101613.09;4963109;29;20472;-81
2022/04/18 03:01:48;;;;;;;7.50;3.55;;;;;;;6.11;87.13;101608.72;4974518;28;20030;-81
2022/04/18 03:04:14;;;;;;;8.48;3.90;;;;;;;6.08;89.25;101615.16;4944811;29;20054;-81
2022/04/18 03:06:39;;;;;;;6.07;3.03;;;;;;;6.07;89.57;101616.13;4952701;29;20035;-81
2022/04/18 03:09:05;;;;;;;5.22;3.47;;;;;;;6.03;89.08;101614.50;4965870;28;20035;-81
2022/04/18 03:11:31;;;;;;;5.40;3.45;;;;;;;5.94;90.64;101610.38;4957048;29;20046;-81
2022/04/18 03:13:56;;;;;;;10.63;3.97;;;;;;;6.01;90.12;101620.00;4934934;29;20471;-82
2022/04/18 03:16:21;;;;;;;7.57;3.35;;;;;;;5.89;89.39;101609.72;4938438;28;20046;-81
2022/04/18 03:18:47;;;;;;;10.73;4.03;;;;;;;5.86;87.93;101608.00;4945409;28;20121;-83
2022/04/18 03:21:13;;;;;;;5.60;3.63;;;;;;;5.82;90.03;101614.56;4961104;29;20465;-80
2022/04/18 03:23:39;;;;;;;7.85;3.55;;;;;;;5.78;89.76;101610.19;4958228;28;20023;-80
2022/04/18 03:26:08;;;;;;;6.50;3.65;;;;;;;5.79;90.35;101605.63;4961449;28;20047;-81
2022/04/18 03:28:34;;;;;;;8.80;4.35;;;;;;;5.71;90.16;101603.31;4957992;29;20476;-81
2022/04/18 03:30:59;;;;;;;7.10;4.22;;;;;;;5.74;89.86;101604.97;4975743;28;20034;-81
2022/04/18 03:33:26;;;;;;;12.75;3.70;;;;;;;5.59;91.68;101587.56;4965646;28;20031;-82
2022/04/18 03:41:20;;;;;;;6.50;3.50;;;;;;;5.47;92.15;101594.44;4957571;28;20032;-81
2022/04/18 03:43:45;;;;;;;5.72;3.30;;;;;;;5.45;91.61;101583.66;4952843;29;20071;-80
2022/04/18 03:46:11;;;;;;;6.95;3.53;;;;;;;5.43;92.04;101599.16;4963810;28;20077;-79
2022/04/18 03:48:36;;;;;;;5.07;3.60;;;;;;;5.33;93.50;101589.66;4955089;29;20499;-81
2022/04/18 03:51:04;;;;;;;12.57;3.85;;;;;;;5.41;93.40;101600.16;4934507;28;20039;-81
2022/04/18 03:53:30;;;;;;;6.32;3.80;;;;;;;5.28;95.17;101591.69;4977191;28;20037;-83
2022/04/18 03:55:55;;;;;;;9.05;3.33;;;;;;;5.39;95.19;101599.34;4961911;28;20126;-81
2022/04/18 03:58:21;;;;;;;4.40;3.17;;;;;;;5.32;96.50;101594.19;4961917;28;20089;-83
2022/04/18 04:00:46;;;;;;;8.13;3.58;;;;;;;5.26;97.00;101593.59;4958751;29;20062;-81
2022/04/18 04:03:12;;;;;;;7.85;3.47;;;;;;;5.25;97.35;101595.44;4974002;28;20475;-83
2022/04/18 04:05:38;;;;;;;4.20;3.30;;;;;;;5.22;97.96;101601.00;4950230;28;20042;-82
2022/04/18 04:08:05;;;;;;;6.78;3.15;;;;;;;5.15;97.33;101594.09;4973707;28;20058;-83
2022/04/18 04:10:31;;;;;;;8.38;3.45;;;;;;;5.20;94.44;101592.03;4957024;29;20026;-82
2022/04/18 04:12:57;;;;;;;8.77;3.42;;;;;;;5.21;98.08;101590.19;4960015;28;20062;-81
2022/04/18 04:15:23;;;;;;;4.25;2.60;;;;;;;5.39;92.39;101591.19;4955152;28;20042;-80
2022/04/18 04:17:49;;;;;;;6.47;3.25;;;;;;;5.61;93.05;101589.28;4941273;28;20067;-80
2022/04/18 04:20:16;;;;;;;5.30;2.40;;;;;;;5.60;90.66;101598.34;4947171;28;20047;-83
2022/04/18 04:22:48;;;;;;;3.75;2.50;;;;;;;5.65;90.32;101590.88;4951476;28;20040;-82
2022/04/18 04:25:17;;;;;;;4.53;2.70;;;;;;;5.47;90.47;101570.88;4944818;28;20047;-82
2022/04/18 04:27:43;;;;;;;4.43;2.78;;;;;;;5.66;89.55;101592.66;4964177;28;20042;-81
2022/04/18 04:30:10;;;;;;;4.95;2.60;;;;;;;5.65;86.47;101576.41;4971956;28;20035;-82
2022/04/18 04:32:35;;;;;;;5.75;3.22;;;;;;;5.74;87.53;101595.00;4962871;28;20102;-82
2022/04/18 04:35:01;;;;;;;7.80;2.28;;;;;;;5.83;86.55;101599.13;4981951;28;20062;-82
2022/04/18 04:37:28;;;;;;;3.13;2.67;;;;;;;5.59;88.69;101582.13;4960008;28;20039;-83
2022/04/18 04:39:53;;;;;;;4.88;2.95;;;;;;;5.66;89.14;101591.78;4994689;28;20561;-82
2022/04/18 04:42:19;;;;;;;5.93;2.65;;;;;;;5.62;88.62;101592.84;4962399;28;20047;-81
2022/04/18 04:44:45;;;;;;;7.00;3.33;;;;;;;5.48;89.86;101590.78;4960407;28;20039;-81
2022/04/18 04:47:11;;;;;;;6.25;2.22;;;;;;;5.42;86.77;101572.94;4944776;28;20392;-82
2022/04/18 04:49:37;;;;;;;4.75;2.35;;;;;;;5.58;88.69;101602.13;4974637;28;20031;-79
2022/04/18 04:52:04;;;;;;;9.00;2.95;;;;;;;5.66;86.89;101600.78;4963834;28;20471;-82
2022/04/18 04:54:29;;;;;;;7.07;3.05;;;;;;;5.63;88.24;101606.38;4947660;28;20042;-81
2022/04/18 04:56:55;;;;;;;6.55;2.05;;;;;;;5.84;85.05;101609.06;4969603;28;20528;-82
2022/04/18 04:59:21;;;;;;;5.15;2.80;;;;;;;5.77;85.47;101603.03;4964294;28;20062;-82
2022/04/18 05:01:46;;;;;;;5.20;2.92;;;;;;;5.87;84.94;101603.44;4945371;28;20043;-82
2022/04/18 05:04:12;;;;;;;4.32;2.92;;;;;;;5.90;86.08;101606.03;4945742;29;20400;-83
2022/04/18 05:06:38;;;;;;;6.47;2.72;;;;;;;5.83;85.07;101608.16;4932080;29;20040;-82
2022/04/18 05:09:04;;;;;;;5.22;2.38;;;;;;;5.91;84.94;101596.06;4952801;29;20040;-82
2022/04/18 05:11:29;;;;;;;5.35;2.60;;;;;;;5.86;87.08;101597.13;4961897;29;20050;-82
2022/04/18 05:13:55;;;;;;;4.18;2.90;;;;;;;5.96;85.40;101597.63;4955135;29;20039;-82
2022/04/18 05:16:21;;;;;;;4.45;2.67;;;;;;;6.03;84.50;101598.19;4943068;29;20051;-83
2022/04/18 05:18:47;;;;;;;6.63;2.53;;;;;;;6.03;84.85;101603.63;4953768;28;20027;-81
2022/04/18 05:21:12;;;;;;;3.55;2.22;;;;;;;6.12;82.90;101602.34;4965339;29;20208;-83
2022/04/18 05:23:38;;;;;;;5.30;2.58;;;;;;;6.15;82.70;101605.78;4964970;29;20107;-81
2022/04/18 05:26:03;;;;;;;5.80;2.50;;;;;;;6.23;83.48;101606.28;4950477;29;20449;-82
2022/04/18 05:28:29;;;;;;;4.20;2.50;;;;;;;6.29;82.85;101609.66;4961054;29;20053;-79
2022/04/18 05:30:54;;;;;;;7.53;2.88;;;;;;;6.36;81.99;101609.28;4947342;29;20039;-80
2022/04/18 05:33:21;;;;;;;5.45;2.92;;;;;;;6.43;81.55;101608.00;4932193;29;20050;-81
2022/04/18 05:35:47;;;;;;;5.07;2.83;;;;;;;6.57;81.26;101606.44;4939934;29;20396;-81
2022/04/18 05:38:14;;;;;;;4.75;2.53;;;;;;;6.81;79.39;101610.63;4958881;29;20059;-83
2022/04/18 05:40:43;;;;;;;7.70;2.70;;;;;;;7.03;78.81;101616.81;4941625;29;20510;-80
2022/04/18 05:43:08;;;;;;;3.90;2.40;;;;;;;7.20;77.21;101610.47;4954804;29;20038;-80
2022/04/18 05:45:36;;;;;;;4.47;2.40;;;;;;;7.38;76.72;101612.25;4953675;29;20043;-79
2022/04/18 05:48:02;;;;;;;5.18;2.42;;;;;;;7.39;76.96;101607.66;4941032;29;20167;-79
2022/04/18 05:50:28;;;;;;;5.05;2.50;;;;;;;7.48;77.29;101610.78;4943977;29;20098;-81
2022/04/18 05:52:54;;;;;;;9.30;2.75;;;;;;;7.95;75.01;101600.06;4955568;29;20760;-81
2022/04/18 05:55:20;;;;;;;4.97;2.30;;;;;;;8.29;72.92;101615.38;4956586;28;20044;-80
2022/04/18 05:57:46;;;;;;;6.00;2.65;;;;;;;8.36;73.79;101619.53;4941965;28;20103;-79
2022/04/18 06:00:15;;;;;;;11.10;2.50;;;;;;;8.72;71.64;101610.19;4949715;28;20045;-80
2022/04/18 06:02:41;;;;;;;5.65;2.78;;;;;;;9.00;70.58;101617.63;4961912;28;20047;-82
2022/04/18 06:05:08;;;;;;;15.10;3.05;;;;;;;8.99;70.97;101612.25;4967903;28;20041;-81
2022/04/18 06:07:38;;;;;;;4.28;2.53;;;;;;;9.32;70.01;101609.28;4964703;28;20069;-80
2022/04/18 06:10:04;;;;;;;8.20;2.95;;;;;;;9.59;67.96;101611.28;4950541;28;20060;-81
2022/04/18 06:12:33;;;;;;;6.03;2.50;;;;;;;9.53;67.17;101622.63;4964728;28;20027;-80
2022/04/18 06:14:59;;;;;;;9.05;3.00;;;;;;;9.79;65.98;101620.06;4950946;28;20039;-82
2022/04/18 06:17:24;;;;;;;5.60;2.70;;;;;;;9.81;65.43;101609.94;4958193;28;20042;-84
2022/04/18 06:19:51;;;;;;;7.25;3.25;;;;;;;9.97;64.70;101609.81;4966173;28;20046;-81
2022/04/18 06:22:17;;;;;;;9.95;3.25;;;;;;;10.38;65.22;101604.41;4963454;28;20550;-81
2022/04/18 06:24:44;;;;;;;7.45;3.35;;;;;;;10.42;64.46;101607.81;4960784;28;20098;-80
2022/04/18 06:27:10;;;;;;;6.45;3.20;;;;;;;10.56;64.21;101604.16;4950339;28;20038;-82
2022/04/18 06:29:37;;;;;;;5.85;3.60;;;;;;;11.10;63.31;101608.72;4949521;28;20126;-82
2022/04/18 06:32:03;;;;;;;7.38;3.45;;;;;;;10.74;64.72;101611.16;4977798;28;20380;-81
2022/04/18 06:34:30;;;;;;;9.10;3.67;;;;;;;11.45;61.19;101610.88;4982340;28;20039;-81
2022/04/18 06:36:56;;;;;;;5.65;3.70;;;;;;;11.18;62.31;101615.44;4943928;28;20031;-80
2022/04/18 06:39:22;;;;;;;10.23;3.40;;;;;;;11.15;61.14;101609.28;4947120;28;20035;-81
2022/04/18 06:41:48;;;;;;;5.72;3.50;;;;;;;11.49;60.72;101618.75;4990633;28;20034;-83
2022/04/18 06:44:13;;;;;;;5.10;3.10;;;;;;;11.85;59.47;101624.47;4967711;28;20194;-83
2022/04/18 06:46:40;;;;;;;8.13;4.15;;;;;;;11.63;59.91;101617.78;4930612;28;20034;-79
2022/04/18 06:49:06;;;;;;;10.57;3.60;;;;;;;12.48;57.83;101617.13;4979795;28;20153;-83
2022/04/18 06:51:32;;;;;;;8.10;3.80;;;;;;;12.25;57.46;101616.97;4962827;28;20054;-82
2022/04/18 06:53:57;;;;;;;8.45;3.78;;;;;;;12.73;54.83;101599.66;4966335;28;20142;-82
2022/04/18 06:59:09;;;;;;;7.75;3.70;;;;;;;13.11;53.80;101609.56;4984876;28;20047;-83
2022/04/18 07:01:35;;;;;;;6.55;3.78;;;;;;;12.95;53.68;101618.09;4956513;28;20055;-84
2022/04/18 07:04:00;;;;;;;8.30;3.85;;;;;;;12.73;55.78;101624.38;4949275;28;21413;-82
2022/04/18 07:06:26;;;;;;;7.10;3.15;;;;;;;13.18;53.79;101601.72;4962719;29;20055;-83
2022/04/18 07:08:52;;;;;;;11.30;4.43;;;;;;;13.23;53.04;101626.97;4948617;28;20041;-85
2022/04/18 07:11:17;;;;;;;6.10;3.60;;;;;;;13.42;51.97;101619.06;4963492;28;20062;-83
2022/04/18 07:13:43;;;;;;;6.43;4.15;;;;;;;13.50;51.86;101612.97;4947465;28;20035;-84
2022/04/18 07:16:08;;;;;;;9.60;3.67;;;;;;;13.79;50.24;101632.66;4965972;28;20035;-84
2022/04/18 07:18:34;;;;;;;10.60;4.40;;;;;;;13.84;50.67;101620.38;4961465;28;20031;-85
2022/04/18 07:21:06;;;;;;;15.43;4.22;;;;;;;13.93;50.91;101620.50;4970521;28;20436;-84
2022/04/18 07:23:32;;;;;;;12.32;3.90;;;;;;;14.10;50.34;101619.16;4957869;29;20035;-81
2022/04/18 07:25:59;;;;;;;15.00;4.60;;;;;;;14.11;49.56;101620.88;4980248;28;20050;-83
2022/04/18 07:28:24;;;;;;;10.88;4.50;;;;;;;14.45;49.33;101618.09;4947253;29;20242;-79
2022/04/18 07:30:50;;;;;;;8.18;4.40;;;;;;;14.53;49.07;101623.84;4974922;28;20043;-81
2022/04/18 07:33:16;;;;;;;9.02;4.40;;;;;;;14.52;48.36;101619.34;4950734;28;20498;-82
2022/04/18 07:35:42;;;;;;;9.52;4.22;;;;;;;14.52;47.11;101616.56;4959667;29;20031;-82
2022/04/18 07:40:54;;;;;;;13.98;4.85;;;;;;;14.71;47.14;101609.56;4978205;28;20479;-81
2022/04/18 07:43:21;;;;;;;9.27;4.40;;;;;;;15.16;46.06;101614.03;4962309;28;20095;-82
2022/04/18 07:45:48;;;;;;;9.30;4.00;;;;;;;15.04;45.00;101608.56;4950423;28;20435;-82
2022/04/18 07:48:13;;;;;;;12.77;4.63;;;;;;;15.18;44.92;101612.91;4965295;29;20046;-82
2022/04/18 07:53:23;;;;;;;9.70;4.18;;;;;;;15.93;43.04;101605.38;4969836;28;20066;-79
2022/04/18 07:55:49;;;;;;;12.25;4.95;;;;;;;15.87;45.06;101596.78;4936132;28;20071;-81
2022/04/18 07:58:14;;;;;;;13.43;4.47;;;;;;;16.89;41.29;101592.00;4956626;28;20066;-79
2022/04/18 08:00:40;;;;;;;10.43;4.57;;;;;;;16.43;42.58;101589.84;4946723;28;20039;-82
2022/04/18 08:03:07;;;;;;;8.85;3.97;;;;;;;17.12;40.55;101596.38;4991108;28;20030;-82
2022/04/18 08:05:33;;;;;;;9.55;4.15;;;;;;;16.93;39.51;101588.97;4953173;28;20093;-80
2022/04/18 08:07:59;;;;;;;10.05;4.75;;;;;;;16.49;40.98;101590.16;4958187;28;20043;-80
2022/04/18 08:10:25;;;;;;;8.18;3.85;;;;;;;16.89;41.38;101593.91;4966943;28;20065;-83
2022/04/18 08:12:52;;;;;;;11.98;4.00;;;;;;;16.94;39.85;101585.16;4966339;28;20134;-81
2022/04/18 08:15:18;;;;;;;9.85;4.47;;;;;;;17.30;39.60;101588.19;4950943;28;20372;-83
2022/04/18 08:17:44;;;;;;;11.52;4.60;;;;;;;17.78;37.97;101582.56;4960644;28;20112;-82
2022/04/18 08:20:13;;;;;;;7.70;3.95;;;;;;;17.30;40.89;101593.72;4946067;28;20077;-82
2022/04/18 08:22:38;;;;;;;9.23;4.43;;;;;;;17.76;39.03;101592.91;4959018;28;20132;-81
2022/04/18 08:25:06;;;;;;;10.65;4.22;;;;;;;17.91;36.52;101598.03;4972034;28;20030;-81
2022/04/18 08:27:31;;;;;;;8.07;4.75;;;;;;;17.55;37.21;101595.03;4965587;28;20046;-80
2022/04/18 08:29:58;;;;;;;11.48;3.72;;;;;;;17.95;35.17;101593.91;4942962;28;20147;-82
2022/04/18 08:32:24;;;;;;;10.13;4.15;;;;;;;18.12;36.13;101595.03;4962422;28;20520;-79
2022/04/18 08:34:49;;;;;;;12.20;5.15;;;;;;;18.26;35.52;101599.16;4954029;28;20034;-81
2022/04/18 08:37:15;;;;;;;12.48;4.22;;;;;;;18.68;34.81;101596.72;4988399;28;20499;-81
2022/04/18 08:39:41;;;;;;;6.38;4.40;;;;;;;18.08;34.49;101591.66;4946516;28;20043;-81
2022/04/18 08:42:07;;;;;;;15.27;5.25;;;;;;;18.34;34.97;101596.50;4966861;28;20035;-79
2022/04/18 08:44:34;;;;;;;11.95;5.00;;;;;;;18.97;35.06;101581.81;4971342;28;20034;-82
2022/04/18 08:47:00;;;;;;;15.63;4.90;;;;;;;18.91;34.04;101588.84;4969419;28;20434;-80
2022/04/18 08:52:56;;;;;;;8.98;5.20;;;;;;;18.52;32.83;101579.91;4987115;28;20106;-79
2022/04/18 08:54:58;;;;;;;12.75;5.53;;;;;;;18.87;34.07;101578.22;4978526;28;20294;-81
2022/04/18 08:57:23;;;;;;;13.30;5.65;;;;;;;18.78;34.27;101584.69;4980028;28;20042;-80
2022/04/18 08:59:57;;;;;;;19.52;5.40;;;;;;;19.74;32.85;101578.41;4962310;28;20054;-81
2022/04/18 09:02:27;;;;;;;9.95;5.00;;;;;;;19.65;32.17;101570.00;4952719;28;20068;-81
2022/04/18 09:04:53;;;;;;;8.75;5.35;;;;;;;19.50;32.61;101577.22;4976342;28;20042;-84
2022/04/18 09:07:19;;;;;;;12.15;5.63;;;;;;;19.04;32.94;101576.50;4950379;28;20500;-82
2022/04/18 09:09:45;;;;;;;16.38;5.50;;;;;;;18.61;33.50;101564.22;4980722;28;20039;-83
2022/04/18 09:12:19;;;;;;;13.63;5.35;;;;;;;19.09;34.16;101571.31;4935207;28;20133;-81
2022/04/18 09:14:54;;;;;;;16.75;6.32;;;;;;;19.65;31.96;101567.22;4980338;28;20488;-81
2022/04/18 09:17:34;;;;;;;18.35;5.75;;;;;;;18.81;32.86;101560.28;4967134;28;20062;-82
2022/04/18 09:20:03;;;;;;;12.38;5.82;;;;;;;18.92;33.17;101562.84;4982639;28;20830;-83
2022/04/18 09:22:28;;;;;;;16.27;6.25;;;;;;;19.43;31.92;101564.97;4975341;28;20376;-83
2022/04/18 09:24:54;;;;;;;11.82;5.80;;;;;;;19.43;32.35;101557.53;4964756;29;20060;-83
2022/04/18 09:27:23;;;;;;;14.05;6.20;;;;;;;19.81;32.47;101565.63;4937259;29;20046;-82
2022/04/18 09:30:03;;;;;;;14.38;6.30;;;;;;;19.90;31.34;101555.44;4985635;28;20034;-83
2022/04/18 09:32:29;;;;;;;12.43;5.85;;;;;;;20.45;30.28;101559.66;4971718;28;20562;-81
2022/04/18 09:35:04;;;;;;;15.55;6.35;;;;;;;19.53;32.06;101548.22;4971140;28;20100;-81
2022/04/18 09:37:30;;;;;;;12.68;5.93;;;;;;;19.59;30.86;101551.22;4984298;28;20070;-82
2022/04/18 09:39:57;;;;;;;17.83;6.50;;;;;;;19.52;31.90;101547.34;4969488;28;20496;-81
2022/04/18 09:42:26;;;;;;;12.10;6.03;;;;;;;19.91;31.43;101551.63;4970938;28;20071;-82
2022/04/18 09:44:51;;;;;;;12.73;5.93;;;;;;;19.68;31.37;101549.38;4952444;29;20047;-80
2022/04/18 09:47:19;;;;;;;13.27;6.43;;;;;;;20.07;31.24;101543.34;4973320;28;20039;-83
2022/04/18 09:49:45;;;;;;;11.85;6.13;;;;;;;21.03;30.45;101544.81;4951246;28;20011;-81
2022/04/18 09:52:12;;;;;;;14.02;6.00;;;;;;;19.86;31.18;101543.78;4971286;28;20039;-82
2022/04/18 09:54:57;;;;;;;11.77;5.05;;;;;;;19.83;31.94;101538.53;4986662;28;20086;-81
2022/04/18 09:57:28;;;;;;;9.57;5.35;;;;;;;19.83;28.36;101535.75;4969615;28;20043;-82
2022/04/18 09:59:56;;;;;;;12.45;5.45;;;;;;;20.42;28.15;101534.97;4968517;28;20515;-81
2022/04/18 10:02:28;;;;;;;10.63;5.40;;;;;;;19.81;28.42;101535.06;4980770;28;20399;-82
2022/04/18 10:04:54;;;;;;;25.40;6.65;;;;;;;20.42;29.33;101523.84;4952274;29;20032;-83
2022/04/18 10:07:20;;;;;;;13.63;5.70;;;;;;;20.37;28.90;101525.19;4951097;28;20062;-81
2022/04/18 10:09:46;;;;;;;14.55;5.63;;;;;;;20.58;26.44;101526.66;4982051;28;20699;-82
2022/04/18 10:12:13;;;;;;;11.32;5.88;;;;;;;20.40;29.13;101526.78;4949309;28;20042;-80
2022/04/18 10:14:40;;;;;;;10.65;5.38;;;;;;;20.36;28.49;101520.66;4977017;28;20436;-79
2022/04/18 10:17:10;;;;;;;14.80;6.65;;;;;;;20.43;29.56;101518.09;4958997;28;20122;-78
2022/04/18 10:19:47;;;;;;;23.67;7.40;;;;;;;19.97;29.01;101528.69;4956857;28;20043;-79
2022/04/18 10:22:51;;;;;;;17.08;6.97;;;;;;;19.86;30.63;101521.53;4975912;28;20043;-79
2022/04/18 10:25:54;;;;;;;15.18;6.72;;;;;;;20.08;30.30;101521.97;4980861;28;20038;-79
2022/04/18 10:28:21;;;;;;;;;;;;;;;20.86;29.57;101518.03;4948041;28;20035;-80
2022/04/18 10:30:52;;;;;;;17.35;6.85;;;;;;;20.32;29.14;101516.50;4971397;28;20351;-79
2022/04/18 10:33:19;;;;;;;16.17;6.28;;;;;;;20.11;28.89;101516.09;4968159;28;20042;-79
2022/04/18 10:35:54;;;;;;;10.05;5.85;;;;;;;20.36;28.99;101515.09;4945982;28;20069;-81
2022/04/18 10:38:25;;;;;;;11.98;5.80;;;;;;;20.02;27.47;101518.84;4966623;28;20169;-79
2022/04/18 10:44:01;;;;;;;13.00;5.70;;;;;;;19.67;28.38;101513.41;4979903;28;20049;-78
2022/04/18 10:46:27;;;;;;;8.13;4.80;;;;;;;19.92;31.71;101506.97;4959665;28;20122;-80
2022/04/18 10:49:01;;;;;;;10.60;5.20;;;;;;;20.15;29.13;101503.56;4979987;28;20027;-80
2022/04/18 10:51:28;;;;;;;14.02;6.18;;;;;;;20.14;28.97;101499.94;4977868;28;20041;-81
2022/04/18 10:54:13;;;;;;;13.07;5.70;;;;;;;20.19;27.32;101494.72;4979847;28;20035;-80
2022/04/18 10:56:55;;;;;;;10.13;5.13;;;;;;;19.77;28.28;101494.75;4961465;28;20039;-81
2022/04/18 10:59:31;;;;;;;14.38;6.45;;;;;;;20.44;28.71;101496.72;4961341;28;20055;-79
2022/04/18 11:01:58;;;;;;;10.90;6.20;;;;;;;20.19;28.92;101491.09;4976963;28;20065;-80
2022/04/18 11:04:48;;;;;;;26.27;5.68;;;;;;;20.27;29.02;101487.47;4981463;28;20117;-82
2022/04/18 11:07:14;;;;;;;10.75;5.00;;;;;;;20.54;28.21;101483.50;4983841;28;20068;-81
2022/04/18 11:09:46;;;;;;;11.68;5.07;;;;;;;20.45;27.25;101484.56;4982173;28;20019;-79
2022/04/18 11:12:15;;;;;;;12.10;4.82;;;;;;;20.42;28.31;101476.53;4975491;28;20031;-80
2022/04/18 11:14:40;;;;;;;13.93;6.10;;;;;;;20.57;29.74;101480.38;4965725;28;20035;-80
2022/04/18 11:17:09;;;;;;;9.93;5.43;;;;;;;20.52;28.67;101485.59;4949014;29;20027;-77
2022/04/18 11:19:40;;;;;;;16.42;5.85;;;;;;;20.49;27.53;101483.16;4961501;28;20113;-78
2022/04/18 11:22:15;;;;;;;16.23;5.85;;;;;;;20.36;28.31;101467.81;4976896;28;20038;-78
2022/04/18 11:24:55;;;;;;;9.43;5.47;;;;;;;20.54;27.53;101475.16;4961291;29;20416;-78
2022/04/18 11:27:20;;;;;;;11.15;5.88;;;;;;;21.69;27.73;101465.88;4960051;28;20035;-77
2022/04/18 11:29:51;;;;;;;24.15;6.35;;;;;;;21.60;27.42;101465.91;4970697;28;20030;-78
2022/04/18 11:32:19;;;;;;;12.95;5.95;;;;;;;20.90;29.71;101463.72;4958057;29;20123;-77
2022/04/18 11:34:50;;;;;;;12.32;6.60;;;;;;;20.68;27.98;101462.53;4957612;29;20538;-77
2022/04/18 11:37:26;;;;;;;15.38;7.00;;;;;;;20.37;29.40;101464.00;4944919;28;20427;-77
2022/04/18 11:39:55;;;;;;;18.35;7.22;;;;;;;20.11;29.64;101454.91;4976303;28;20062;-78
2022/04/18 11:42:23;;;;;;;10.70;5.88;;;;;;;20.80;29.19;101444.41;4959602;29;20027;-78
2022/04/18 11:44:51;;;;;;;13.68;6.05;;;;;;;20.68;30.56;101456.97;4960613;28;20089;-77
2022/04/18 11:47:26;;;;;;;17.02;7.35;;;;;;;20.80;29.58;101463.91;4970911;28;20062;-78
2022/04/18 11:50:01;;;;;;;10.73;5.45;;;;;;;20.35;28.24;101452.19;4976236;28;20031;-77
2022/04/18 11:52:28;;;;;;;11.90;5.45;;;;;;;20.28;28.08;101453.03;4975508;28;20031;-78
2022/04/18 11:55:01;;;;;;;11.85;5.28;;;;;;;20.16;27.98;101446.94;4964807;28;20031;-79